createdAt,value
2023-02-18T00:03:38.699Z,100.00
2023-02-18T00:06:30.216Z,100.00
2023-02-18T00:09:17.321Z,100.00
2023-02-18T00:12:04.581Z,100.00
2023-02-18T00:14:51.711Z,100.00
2023-02-18T00:17:38.814Z,100.00
2023-02-18T00:20:26.009Z,100.00
2023-02-18T00:23:13.055Z,100.00
2023-02-18T00:26:08.844Z,100.00
2023-02-18T00:28:56.257Z,100.00
2023-02-18T00:31:43.842Z,100.00
2023-02-18T00:34:31.100Z,100.00
2023-02-18T00:37:18.309Z,100.00
2023-02-18T00:40:06.116Z,100.00
2023-02-18T00:42:53.256Z,100.00
2023-02-18T00:45:40.349Z,100.00
2023-02-18T00:48:27.453Z,100.00
2023-02-18T00:51:14.530Z,100.00
2023-02-18T00:54:01.904Z,100.00
2023-02-18T00:56:48.949Z,100.00
2023-02-18T00:59:36.069Z,100.00
2023-02-18T01:02:23.117Z,100.00
2023-02-18T01:05:10.341Z,100.00
2023-02-18T01:07:57.390Z,100.00
2023-02-18T01:10:47.017Z,100.00
2023-02-18T01:13:34.360Z,100.00
2023-02-18T01:16:21.587Z,100.00
2023-02-18T01:19:09.644Z,100.00
2023-02-18T01:21:56.895Z,100.00
2023-02-18T01:24:46.197Z,100.00
2023-02-18T01:27:33.675Z,100.00
2023-02-18T01:30:21.232Z,100.00
2023-02-18T01:33:09.287Z,100.00
2023-02-18T01:35:56.287Z,100.00
2023-02-18T01:38:43.338Z,100.00
2023-02-18T01:41:30.393Z,100.00
2023-02-18T01:44:26.770Z,100.00
2023-02-18T01:47:14.151Z,100.00
2023-02-18T01:50:01.250Z,100.00
2023-02-18T01:52:48.413Z,100.00
2023-02-18T01:55:37.314Z,100.00
2023-02-18T01:58:24.650Z,100.00
2023-02-18T02:01:12.009Z,100.00
2023-02-18T02:03:59.407Z,100.00
2023-02-18T02:06:46.470Z,100.00
2023-02-18T02:09:35.253Z,100.00
2023-02-18T02:12:22.373Z,100.00
2023-02-18T02:15:38.029Z,100.00
2023-02-18T02:18:27.874Z,100.00
2023-02-18T02:21:56.304Z,100.00
2023-02-18T02:25:12.214Z,100.00
2023-02-18T02:28:30.544Z,100.00
2023-02-18T02:31:39.472Z,100.00
2023-02-18T02:34:48.243Z,100.00
2023-02-18T02:38:07.878Z,100.00
2023-02-18T02:41:15.259Z,100.00
2023-02-18T02:44:11.020Z,100.00
2023-02-18T02:47:07.794Z,100.00
2023-02-18T02:50:09.241Z,100.00
2023-02-18T02:53:02.912Z,100.00
2023-02-18T02:55:49.958Z,100.00
2023-02-18T02:58:37.023Z,100.00
2023-02-18T03:01:38.339Z,100.00
2023-02-18T03:04:54.608Z,100.00
2023-02-18T03:08:06.252Z,100.00
2023-02-18T03:11:09.068Z,100.00
2023-02-18T03:14:20.311Z,100.00
2023-02-18T03:17:30.063Z,100.00
2023-02-18T03:20:26.427Z,100.00
2023-02-18T03:23:19.595Z,100.00
2023-02-18T03:26:08.771Z,100.00
2023-02-18T03:28:59.564Z,100.00
2023-02-18T03:31:50.479Z,100.00
2023-02-18T03:34:43.866Z,100.00
2023-02-18T03:37:35.833Z,100.00
2023-02-18T03:40:22.958Z,100.00
2023-02-18T03:43:10.141Z,100.00
2023-02-18T03:45:58.034Z,100.00
2023-02-18T03:48:45.488Z,100.00
2023-02-18T03:51:33.365Z,100.00
2023-02-18T03:54:20.568Z,100.00
2023-02-18T03:57:07.664Z,100.00
2023-02-18T03:59:54.694Z,100.00
2023-02-18T04:02:42.518Z,100.00
2023-02-18T04:05:29.544Z,100.00
2023-02-18T04:08:16.596Z,100.00
2023-02-18T04:11:05.211Z,100.00
2023-02-18T04:13:52.330Z,100.00
2023-02-18T04:16:39.676Z,100.00
2023-02-18T04:19:27.095Z,100.00
2023-02-18T04:22:14.137Z,100.00
2023-02-18T04:25:01.207Z,100.00
2023-02-18T04:27:48.350Z,100.00
2023-02-18T04:30:35.674Z,100.00
2023-02-18T04:33:22.856Z,100.00
2023-02-18T04:36:10.554Z,100.00
2023-02-18T04:38:57.812Z,100.00
2023-02-18T04:41:44.918Z,100.00
2023-02-18T04:44:32.015Z,100.00
2023-02-18T04:47:19.097Z,100.00
2023-02-18T04:50:06.910Z,100.00
2023-02-18T04:52:54.096Z,100.00
2023-02-18T04:55:41.172Z,100.00
2023-02-18T04:58:28.269Z,100.00
2023-02-18T05:01:15.344Z,100.00
2023-02-18T05:04:02.469Z,100.00
2023-02-18T05:06:49.610Z,100.00
2023-02-18T05:09:36.765Z,100.00
2023-02-18T05:12:23.834Z,100.00
2023-02-18T05:15:11.181Z,100.00
2023-02-18T05:17:58.204Z,100.00
2023-02-18T05:20:45.341Z,100.00
2023-02-18T05:23:32.809Z,100.00
2023-02-18T05:26:19.992Z,100.00
2023-02-18T05:29:07.107Z,100.00
2023-02-18T05:31:54.321Z,100.00
2023-02-18T05:34:41.647Z,100.00
2023-02-18T05:37:28.714Z,100.00
2023-02-18T05:40:15.914Z,100.00
2023-02-18T05:43:03.048Z,100.00
2023-02-18T05:45:50.101Z,100.00
2023-02-18T05:48:37.155Z,100.00
2023-02-18T05:51:24.290Z,100.00
2023-02-18T05:54:11.401Z,100.00
2023-02-18T05:56:58.528Z,100.00
2023-02-18T05:59:45.655Z,100.00
2023-02-18T06:02:32.943Z,100.00
2023-02-18T06:05:20.066Z,100.00
2023-02-18T06:08:07.126Z,100.00
2023-02-18T06:10:55.123Z,100.00
2023-02-18T06:13:42.174Z,100.00
2023-02-18T06:16:29.545Z,100.00
2023-02-18T06:19:16.702Z,100.00
2023-02-18T06:22:04.027Z,100.00
2023-02-18T06:24:51.093Z,100.00
2023-02-18T06:27:38.153Z,100.00
2023-02-18T06:30:25.221Z,100.00
2023-02-18T06:33:12.844Z,100.00
2023-02-18T06:36:05.552Z,100.00
2023-02-18T06:38:54.238Z,100.00
2023-02-18T06:41:41.356Z,100.00
2023-02-18T06:44:28.437Z,100.00
2023-02-18T06:47:15.471Z,100.00
2023-02-18T06:50:02.800Z,100.00
2023-02-18T06:52:49.827Z,100.00
2023-02-18T06:55:37.350Z,100.00
2023-02-18T06:58:24.482Z,100.00
2023-02-18T07:01:11.589Z,100.00
2023-02-18T07:03:58.713Z,100.00
2023-02-18T07:06:45.901Z,100.00
2023-02-18T07:09:32.997Z,100.00
2023-02-18T07:12:20.042Z,100.00
2023-02-18T07:15:07.368Z,100.00
2023-02-18T07:17:55.614Z,100.00
2023-02-18T07:20:42.653Z,100.00
2023-02-18T07:23:29.920Z,100.00
2023-02-18T07:26:17.336Z,100.00
2023-02-18T07:29:04.457Z,100.00
2023-02-18T07:31:52.258Z,100.00
2023-02-18T07:34:39.609Z,100.00
2023-02-18T07:37:26.735Z,100.00
2023-02-18T07:40:17.115Z,100.00
2023-02-18T07:43:04.194Z,100.00
2023-02-18T07:45:51.404Z,100.00
2023-02-18T07:48:38.639Z,100.00
2023-02-18T07:51:25.708Z,100.00
2023-02-18T07:54:12.863Z,100.00
2023-02-18T07:56:59.933Z,100.00
2023-02-18T07:59:47.004Z,100.00
2023-02-18T08:02:34.071Z,100.00
2023-02-18T08:05:21.207Z,100.00
2023-02-18T08:08:09.808Z,100.00
2023-02-18T08:11:01.054Z,100.00
2023-02-18T08:13:50.153Z,100.00
2023-02-18T08:16:37.306Z,100.00
2023-02-18T08:19:24.535Z,100.00
2023-02-18T08:22:11.762Z,100.00
2023-02-18T08:24:58.898Z,100.00
2023-02-18T08:27:46.061Z,100.00
2023-02-18T08:30:33.313Z,100.00
2023-02-18T08:33:22.175Z,100.00
2023-02-18T08:36:10.868Z,100.00
2023-02-18T08:38:58.485Z,100.00
2023-02-18T08:41:45.627Z,100.00
2023-02-18T08:44:32.736Z,100.00
2023-02-18T08:48:17.812Z,100.00
2023-02-18T08:50:28.461Z,100.00
2023-02-18T08:53:16.481Z,100.00
2023-02-18T08:56:07.359Z,100.00
2023-02-18T08:58:54.523Z,100.00
2023-02-18T09:01:41.607Z,100.00
2023-02-18T09:04:28.802Z,100.00
2023-02-18T09:07:15.884Z,100.00
2023-02-18T09:10:03.622Z,100.00
2023-02-18T09:12:50.716Z,100.00
2023-02-18T09:15:38.018Z,100.00
2023-02-18T09:18:25.416Z,100.00
2023-02-18T09:21:14.556Z,100.00
2023-02-18T09:24:02.071Z,100.00
2023-02-18T09:26:49.216Z,100.00
2023-02-18T09:29:39.642Z,100.00
2023-02-18T09:32:34.679Z,100.00
2023-02-18T09:35:21.926Z,100.00
2023-02-18T09:38:11.696Z,100.00
2023-02-18T09:41:01.058Z,100.00
2023-02-18T09:43:56.094Z,100.00
2023-02-18T09:46:54.294Z,100.00
2023-02-18T09:49:46.217Z,100.00
2023-02-18T09:52:38.709Z,100.00
2023-02-18T09:55:54.294Z,100.00
2023-02-18T09:58:43.404Z,100.00
2023-02-18T10:01:40.406Z,100.00
2023-02-18T10:04:32.158Z,100.00
2023-02-18T10:07:30.252Z,100.00
2023-02-18T10:10:40.409Z,100.00
2023-02-18T10:13:34.628Z,100.00
2023-02-18T10:16:24.567Z,100.00
2023-02-18T10:19:43.649Z,100.00
2023-02-18T10:22:31.052Z,100.00
2023-02-18T10:25:23.072Z,100.00
2023-02-18T10:28:25.166Z,100.00
2023-02-18T10:31:19.432Z,100.00
2023-02-18T10:34:32.204Z,100.00
2023-02-18T10:37:44.743Z,100.00
2023-02-18T10:40:49.657Z,100.00
2023-02-18T10:43:36.734Z,100.00
2023-02-18T10:46:46.542Z,100.00
2023-02-18T10:49:58.375Z,100.00
2023-02-18T10:52:55.412Z,100.00
2023-02-18T10:55:49.842Z,100.00
2023-02-18T10:58:45.264Z,100.00
2023-02-18T11:01:32.423Z,100.00
2023-02-18T11:04:23.788Z,100.00
2023-02-18T11:07:17.139Z,100.00
2023-02-18T11:10:33.956Z,97.45
2023-02-18T11:13:33.312Z,96.66
2023-02-18T11:16:24.108Z,95.77
2023-02-18T11:19:34.744Z,90.93
2023-02-18T11:22:25.759Z,92.72
2023-02-18T11:25:20.718Z,90.50
2023-02-18T11:28:31.287Z,89.69
2023-02-18T11:31:23.721Z,87.33
2023-02-18T11:34:37.556Z,87.46
2023-02-18T11:37:24.897Z,84.61
2023-02-18T11:40:41.550Z,84.49
2023-02-18T11:43:31.668Z,84.32
2023-02-18T11:46:25.041Z,86.71
2023-02-18T11:49:22.706Z,86.18
2023-02-18T11:52:27.358Z,86.64
2023-02-18T11:55:23.662Z,86.73
2023-02-18T11:58:13.541Z,87.06
2023-02-18T12:01:03.625Z,88.62
2023-02-18T12:04:09.931Z,86.63
2023-02-18T12:07:20.451Z,87.81
2023-02-18T12:10:22.590Z,83.98
2023-02-18T12:13:33.564Z,79.68
2023-02-18T12:16:20.598Z,77.47
2023-02-18T12:19:49.233Z,73.73
2023-02-18T12:23:00.105Z,67.97
2023-02-18T12:26:14.975Z,68.96
2023-02-18T12:29:36.028Z,66.91
2023-02-18T12:32:40.296Z,67.01
2023-02-18T12:35:45.846Z,69.88
2023-02-18T12:38:52.479Z,68.04
2023-02-18T12:41:53.863Z,67.45
2023-02-18T12:45:31.713Z,68.77
2023-02-18T12:49:01.756Z,68.63
2023-02-18T12:52:07.505Z,69.56
2023-02-18T12:55:36.409Z,70.51
2023-02-18T12:58:38.421Z,69.96
2023-02-18T13:01:34.684Z,68.82
2023-02-18T13:04:39.217Z,70.08
2023-02-18T13:07:33.702Z,71.80
2023-02-18T13:10:42.768Z,71.93
2023-02-18T13:13:44.471Z,71.03
2023-02-18T13:16:33.150Z,72.13
2023-02-18T13:19:23.391Z,71.40
2023-02-18T13:22:15.711Z,68.46
2023-02-18T13:25:03.379Z,69.76
2023-02-18T13:28:12.349Z,69.11
2023-02-18T13:31:40.770Z,68.52
2023-02-18T13:34:46.348Z,72.07
2023-02-18T13:37:41.286Z,70.87
2023-02-18T13:40:31.690Z,72.64
2023-02-18T13:43:29.486Z,73.82
2023-02-18T13:46:19.174Z,74.90
2023-02-18T13:49:13.814Z,75.47
2023-02-18T13:52:03.479Z,75.45
2023-02-18T13:54:52.054Z,76.75
2023-02-18T13:57:39.471Z,74.90
2023-02-18T14:00:36.993Z,74.17
2023-02-18T14:03:42.468Z,73.41
2023-02-18T14:06:38.068Z,73.82
2023-02-18T14:09:35.430Z,71.71
2023-02-18T14:12:40.021Z,69.26
2023-02-18T14:15:27.042Z,67.98
2023-02-18T14:18:14.400Z,66.16
2023-02-18T14:21:11.378Z,67.00
2023-02-18T14:24:02.004Z,68.67
2023-02-18T14:26:50.104Z,66.70
2023-02-18T14:29:37.460Z,68.17
2023-02-18T14:32:25.794Z,68.84
2023-02-18T14:35:33.134Z,70.46
2023-02-18T14:38:30.978Z,71.24
2023-02-18T14:41:36.713Z,70.11
2023-02-18T14:44:54.212Z,71.19
2023-02-18T14:48:05.010Z,71.04
2023-02-18T14:50:54.512Z,71.86
2023-02-18T14:53:45.047Z,72.88
2023-02-18T14:56:38.654Z,74.18
2023-02-18T14:59:30.806Z,73.78
2023-02-18T15:02:24.334Z,71.94
2023-02-18T15:05:33.130Z,72.94
2023-02-18T15:08:25.874Z,69.50
2023-02-18T15:11:13.035Z,73.94
2023-02-18T15:14:01.059Z,70.37
2023-02-18T15:16:49.809Z,69.79
2023-02-18T15:19:41.522Z,70.10
2023-02-18T15:22:34.210Z,69.82
2023-02-18T15:25:22.297Z,69.87
2023-02-18T15:28:32.351Z,70.20
2023-02-18T15:31:25.515Z,69.19
2023-02-18T15:34:32.290Z,68.23
2023-02-18T15:37:19.920Z,68.23
2023-02-18T15:40:17.146Z,68.46
2023-02-18T15:43:06.906Z,68.68
2023-02-18T15:45:57.509Z,66.55
2023-02-18T15:48:49.055Z,68.60
2023-02-18T15:51:37.121Z,68.64
2023-02-18T15:54:24.967Z,68.51
2023-02-18T15:57:16.980Z,70.43
2023-02-18T16:00:18.346Z,69.27
2023-02-18T16:03:05.649Z,70.69
2023-02-18T16:05:38.898Z,69.09
2023-02-18T16:08:14.589Z,68.10
2023-02-18T16:10:50.589Z,68.32
2023-02-18T16:13:19.360Z,68.48
2023-02-18T16:16:06.052Z,69.08
2023-02-18T16:18:53.865Z,70.36
2023-02-18T16:21:45.537Z,72.59
2023-02-18T16:24:41.559Z,71.38
2023-02-18T16:27:34.269Z,71.05
2023-02-18T16:30:25.605Z,72.36
2023-02-18T16:33:13.805Z,71.69
2023-02-18T16:36:01.363Z,71.60
2023-02-18T16:38:50.822Z,72.51
2023-02-18T16:41:38.105Z,72.07
2023-02-18T16:44:27.205Z,72.02
2023-02-18T16:47:19.124Z,71.92
2023-02-18T16:50:14.776Z,75.16
2023-02-18T16:53:02.088Z,73.48
2023-02-18T16:55:51.483Z,75.38
2023-02-18T16:58:41.401Z,77.01
2023-02-18T17:01:38.350Z,74.88
2023-02-18T17:04:27.313Z,77.90
2023-02-18T17:07:15.133Z,78.09
2023-02-18T17:10:04.035Z,80.04
2023-02-18T17:12:51.348Z,79.99
2023-02-18T17:15:38.573Z,80.42
2023-02-18T17:18:28.497Z,81.80
2023-02-18T17:21:17.151Z,80.87
2023-02-18T17:24:05.198Z,80.82
2023-02-18T17:26:53.945Z,80.40
2023-02-18T17:29:41.332Z,78.38
2023-02-18T17:32:29.505Z,77.88
2023-02-18T17:35:20.436Z,78.68
2023-02-18T17:38:12.825Z,78.81
2023-02-18T17:41:00.870Z,78.25
2023-02-18T17:43:49.854Z,81.10
2023-02-18T17:46:37.821Z,80.00
2023-02-18T17:49:25.427Z,80.85
2023-02-18T17:52:31.009Z,81.11
2023-02-18T17:55:31.829Z,80.61
2023-02-18T17:58:20.210Z,82.76
2023-02-18T18:01:10.800Z,82.65
2023-02-18T18:03:58.752Z,84.55
2023-02-18T18:06:50.982Z,83.91
2023-02-18T18:09:39.117Z,83.44
2023-02-18T18:12:30.394Z,85.18
2023-02-18T18:15:28.992Z,84.69
2023-02-18T18:18:19.644Z,85.26
2023-02-18T18:21:16.173Z,86.17
2023-02-18T18:24:05.815Z,85.63
2023-02-18T18:26:54.062Z,85.74
2023-02-18T18:29:43.221Z,85.83
2023-02-18T18:32:31.943Z,85.42
2023-02-18T18:35:41.024Z,86.09
2023-02-18T18:38:30.112Z,87.00
2023-02-18T18:41:21.315Z,86.35
2023-02-18T18:44:11.869Z,87.55
2023-02-18T18:47:02.989Z,87.79
2023-02-18T18:49:50.962Z,88.39
2023-02-18T18:52:41.363Z,88.41
2023-02-18T18:55:32.164Z,89.76
2023-02-18T18:58:24.929Z,90.30
2023-02-18T19:01:18.779Z,91.56
2023-02-18T19:04:06.932Z,90.80
2023-02-18T19:06:56.305Z,89.68
2023-02-18T19:09:44.452Z,89.87
2023-02-18T19:12:33.694Z,88.65
2023-02-18T19:15:23.554Z,90.32
2023-02-18T19:18:17.795Z,90.45
2023-02-18T19:21:09.290Z,89.71
2023-02-18T19:23:57.286Z,89.85
2023-02-18T19:26:45.140Z,86.86
2023-02-18T19:29:35.093Z,89.13
2023-02-18T19:32:22.552Z,88.14
2023-02-18T19:35:10.501Z,89.52
2023-02-18T19:37:59.161Z,87.99
2023-02-18T19:40:47.472Z,85.77
2023-02-18T19:43:37.199Z,88.07
2023-02-18T19:46:25.333Z,87.62
2023-02-18T19:49:14.553Z,89.65
2023-02-18T19:52:04.585Z,89.61
2023-02-18T19:54:52.356Z,91.13
2023-02-18T19:57:40.660Z,90.65
2023-02-18T20:00:28.833Z,92.82
2023-02-18T20:03:16.876Z,92.46
2023-02-18T20:06:06.507Z,93.54
2023-02-18T20:08:56.512Z,95.55
2023-02-18T20:11:44.217Z,93.47
2023-02-18T20:14:32.604Z,93.56
2023-02-18T20:17:22.065Z,93.09
2023-02-18T20:20:10.721Z,94.67
2023-02-18T20:22:58.252Z,93.45
2023-02-18T20:25:48.059Z,94.56
2023-02-18T20:28:35.970Z,94.70
2023-02-18T20:31:24.191Z,92.85
2023-02-18T20:34:14.116Z,92.88
2023-02-18T20:37:02.289Z,94.47
2023-02-18T20:39:49.774Z,93.63
2023-02-18T20:42:39.424Z,92.31
2023-02-18T20:45:27.562Z,92.81
2023-02-18T20:48:15.111Z,93.19
2023-02-18T20:51:07.997Z,92.27
2023-02-18T20:53:56.249Z,93.27
2023-02-18T20:56:46.110Z,92.37
2023-02-18T20:59:34.298Z,92.95
2023-02-18T21:02:25.898Z,93.81
2023-02-18T21:05:13.891Z,94.37
2023-02-18T21:08:02.014Z,92.88
2023-02-18T21:10:52.059Z,92.69
2023-02-18T21:13:39.646Z,94.40
2023-02-18T21:16:29.250Z,94.76
2023-02-18T21:19:18.332Z,94.28
2023-02-18T21:22:10.036Z,95.53
2023-02-18T21:24:59.421Z,96.08
2023-02-18T21:27:47.361Z,96.19
2023-02-18T21:30:41.154Z,96.33
2023-02-18T21:33:28.873Z,97.49
2023-02-18T21:36:17.523Z,97.41
2023-02-18T21:39:09.172Z,97.16
2023-02-18T21:41:57.398Z,98.76
2023-02-18T21:44:44.922Z,97.48
2023-02-18T21:47:32.317Z,97.63
2023-02-18T21:50:20.353Z,97.77
2023-02-18T21:53:07.788Z,99.13
2023-02-18T21:56:03.710Z,100.00
2023-02-18T21:58:54.013Z,100.00
2023-02-18T22:01:41.573Z,100.00
2023-02-18T22:04:30.924Z,100.00
2023-02-18T22:07:20.088Z,100.00
2023-02-18T22:10:07.513Z,100.00
2023-02-18T22:12:54.681Z,100.00
2023-02-18T22:15:42.132Z,100.00
2023-02-18T22:18:31.539Z,99.81
2023-02-18T22:21:20.948Z,100.00
2023-02-18T22:24:08.749Z,100.00
2023-02-18T22:26:56.901Z,100.00
2023-02-18T22:29:44.001Z,100.00
2023-02-18T22:32:31.999Z,100.00
2023-02-18T22:35:19.230Z,100.00
2023-02-18T22:38:06.279Z,100.00
2023-02-18T22:40:53.352Z,100.00
2023-02-18T22:43:40.734Z,100.00
2023-02-18T22:46:29.496Z,100.00
2023-02-18T22:49:16.643Z,100.00
2023-02-18T22:52:03.829Z,100.00
2023-02-18T22:54:50.848Z,100.00
2023-02-18T22:57:37.909Z,100.00
2023-02-18T23:00:26.025Z,100.00
2023-02-18T23:03:13.181Z,100.00
2023-02-18T23:06:05.339Z,100.00
2023-02-18T23:08:54.414Z,100.00
2023-02-18T23:11:41.517Z,100.00
2023-02-18T23:14:30.607Z,100.00
2023-02-18T23:17:18.033Z,100.00
2023-02-18T23:20:05.630Z,100.00
2023-02-18T23:22:52.673Z,100.00
2023-02-18T23:25:39.766Z,100.00
2023-02-18T23:28:26.803Z,100.00
2023-02-18T23:31:23.737Z,100.00
2023-02-18T23:34:15.793Z,100.00
2023-02-18T23:37:02.852Z,100.00
2023-02-18T23:39:49.906Z,100.00
2023-02-18T23:42:36.984Z,100.00
2023-02-18T23:45:24.064Z,100.00
2023-02-18T23:48:11.183Z,100.00
2023-02-18T23:51:00.062Z,100.00
2023-02-18T23:53:47.410Z,100.00
2023-02-18T23:56:34.844Z,100.00
2023-02-18T23:59:21.982Z,100.00
